Time;durP1;ratioP1;P1;durP2;ratioP2;P2;SDS_P1;SDS_P2;PMS_P1;PMS_P2;Temp;Humidity;BMP_temperature;BMP_pressure;BME280_temperature;BME280_humidity;BME280_pressure;Samples;Min_cycle;Max_cycle;Signal;HPM_P1;HPM_P2
2022/05/31 00:01:37;;;;;;;13.23;12.38;;;16.70;48.50;;;;;;5029281;28;20041;-75
2022/05/31 00:04:04;;;;;;;13.02;12.10;;;16.70;48.40;;;;;;5028242;28;20574;-75
2022/05/31 00:06:30;;;;;;;13.18;12.18;;;16.80;48.40;;;;;;5012839;28;20033;-75
2022/05/31 00:08:56;;;;;;;13.15;12.18;;;16.80;48.30;;;;;;5026577;28;20041;-75
2022/05/31 00:11:22;;;;;;;13.40;12.50;;;16.70;48.30;;;;;;5010252;28;20068;-74
2022/05/31 00:13:48;;;;;;;12.98;12.25;;;16.80;48.30;;;;;;5026674;28;20033;-75
2022/05/31 00:16:14;;;;;;;12.95;12.05;;;16.80;48.50;;;;;;5026809;28;20033;-75
2022/05/31 00:18:40;;;;;;;13.30;12.50;;;16.70;48.50;;;;;;5010070;28;20049;-74
2022/05/31 00:21:07;;;;;;;13.23;12.32;;;16.70;48.50;;;;;;5027452;28;20044;-75
2022/05/31 00:23:34;;;;;;;13.05;12.05;;;16.70;48.80;;;;;;5026495;28;20032;-75
2022/05/31 00:26:00;;;;;;;12.85;12.05;;;16.70;48.90;;;;;;5026095;28;20025;-75
2022/05/31 00:28:27;;;;;;;13.20;12.38;;;16.70;49.50;;;;;;5010008;28;20065;-74
2022/05/31 00:30:53;;;;;;;12.75;11.95;;;16.60;49.90;;;;;;5009573;28;20045;-75
2022/05/31 00:33:19;;;;;;;12.57;11.70;;;16.60;50.20;;;;;;5010642;28;20037;-75
2022/05/31 00:35:46;;;;;;;12.35;11.65;;;16.60;50.40;;;;;;5009826;28;20041;-75
2022/05/31 00:38:12;;;;;;;11.48;10.82;;;16.60;50.70;;;;;;5010028;28;20037;-75
2022/05/31 00:40:39;;;;;;;11.57;10.70;;;16.50;50.40;;;;;;5026337;28;20030;-75
2022/05/31 00:43:13;;;;;;;11.35;10.70;;;16.50;50.70;;;;;;5027454;28;20379;-75
2022/05/31 00:45:45;;;;;;;11.40;10.70;;;16.40;51.00;;;;;;5008987;28;20030;-74
2022/05/31 00:48:23;;;;;;;10.95;10.35;;;16.30;51.30;;;;;;5025052;28;20029;-75
2022/05/31 00:51:00;;;;;;;10.82;10.15;;;16.30;51.20;;;;;;5009271;28;20057;-74
2022/05/31 00:53:39;;;;;;;10.40;9.80;;;16.40;51.50;;;;;;5009497;28;20033;-75
2022/05/31 00:56:09;;;;;;;10.30;9.50;;;16.30;51.60;;;;;;5028526;28;20420;-75
2022/05/31 00:58:38;;;;;;;10.23;9.43;;;16.30;51.80;;;;;;5009622;28;20056;-75
2022/05/31 01:01:12;;;;;;;9.82;9.20;;;16.30;52.00;;;;;;5026959;28;20408;-75
2022/05/31 01:03:39;;;;;;;9.32;8.75;;;16.30;52.40;;;;;;5014141;28;20037;-75
2022/05/31 01:06:06;;;;;;;9.32;8.73;;;16.20;52.70;;;;;;5009644;28;20037;-75
2022/05/31 01:08:34;;;;;;;8.75;8.15;;;16.20;53.20;;;;;;5009537;28;20476;-75
2022/05/31 01:11:01;;;;;;;9.13;8.32;;;16.20;53.60;;;;;;5009639;28;20041;-75
2022/05/31 01:13:28;;;;;;;8.80;8.20;;;16.20;53.60;;;;;;5027219;28;20117;-75
2022/05/31 01:16:04;;;;;;;8.75;8.15;;;16.20;53.90;;;;;;5027820;28;20029;-75
2022/05/31 01:18:30;;;;;;;8.35;7.75;;;16.10;54.00;;;;;;5012405;28;20052;-75
2022/05/31 01:20:56;;;;;;;8.60;8.10;;;16.10;54.10;;;;;;5011892;28;20045;-75
2022/05/31 01:23:22;;;;;;;8.50;8.00;;;16.10;54.40;;;;;;5025153;28;20419;-75
2022/05/31 01:25:51;;;;;;;9.80;8.85;;;16.10;54.30;;;;;;5005728;28;20401;-74
2022/05/31 01:28:40;;;;;;;9.10;8.38;;;16.10;54.30;;;;;;5027309;28;20038;-75
2022/05/31 01:31:17;;;;;;;8.65;7.82;;;16.10;54.30;;;;;;5027962;28;20396;-75
2022/05/31 01:33:43;;;;;;;8.50;7.90;;;16.10;54.30;;;;;;5025275;28;20403;-75
2022/05/31 01:36:18;;;;;;;8.52;7.90;;;16.00;54.50;;;;;;5027192;28;20033;-74
2022/05/31 01:38:55;;;;;;;8.25;7.65;;;16.00;54.60;;;;;;5028319;28;20262;-74
2022/05/31 01:41:25;;;;;;;8.00;7.50;;;15.90;55.00;;;;;;5028203;28;20032;-75
2022/05/31 01:43:52;;;;;;;8.38;7.78;;;15.80;55.30;;;;;;5026824;28;20403;-75
2022/05/31 01:46:27;;;;;;;8.35;7.70;;;15.80;55.30;;;;;;5029119;28;20038;-74
2022/05/31 01:48:53;;;;;;;7.93;7.43;;;15.80;55.50;;;;;;5031872;28;20025;-74
2022/05/31 01:51:20;;;;;;;8.20;7.68;;;15.80;55.60;;;;;;5014315;28;20033;-74
2022/05/31 01:53:46;;;;;;;8.15;7.55;;;15.80;55.50;;;;;;5013025;28;20042;-75
2022/05/31 01:56:13;;;;;;;7.97;7.45;;;15.80;55.80;;;;;;5029252;28;20034;-74
2022/05/31 01:58:40;;;;;;;8.00;7.40;;;15.80;55.70;;;;;;5015430;28;20049;-75
2022/05/31 02:01:06;;;;;;;8.30;7.80;;;15.70;55.80;;;;;;5012415;28;20030;-74
2022/05/31 02:03:33;;;;;;;8.45;7.80;;;15.70;55.40;;;;;;5031928;28;20037;-75
2022/05/31 02:05:59;;;;;;;8.70;7.90;;;15.70;55.50;;;;;;5012651;28;20052;-75
2022/05/31 02:08:26;;;;;;;8.57;8.05;;;15.60;55.30;;;;;;5029219;28;20029;-75
2022/05/31 02:10:54;;;;;;;8.13;7.63;;;15.70;55.40;;;;;;5031446;28;20049;-74
2022/05/31 02:13:20;;;;;;;8.85;8.15;;;15.70;55.20;;;;;;5014092;28;20041;-75
2022/05/31 02:15:46;;;;;;;8.38;7.80;;;15.60;55.00;;;;;;5031369;28;20373;-74
2022/05/31 02:18:13;;;;;;;8.40;7.90;;;15.60;55.30;;;;;;5029829;28;20037;-74
2022/05/31 02:20:39;;;;;;;8.60;8.00;;;15.60;55.10;;;;;;5028903;28;20025;-74
2022/05/31 02:23:05;;;;;;;8.48;7.78;;;15.60;55.30;;;;;;5014932;28;20049;-75
2022/05/31 02:25:31;;;;;;;8.40;7.82;;;15.50;55.20;;;;;;5030766;28;20030;-75
2022/05/31 02:27:58;;;;;;;8.20;7.57;;;15.50;55.40;;;;;;5013515;28;20044;-74
2022/05/31 02:30:24;;;;;;;8.45;7.60;;;15.40;55.90;;;;;;5031083;28;20037;-74
2022/05/31 02:32:50;;;;;;;8.30;7.60;;;15.40;56.60;;;;;;5031301;28;20041;-75
2022/05/31 02:35:16;;;;;;;7.95;7.35;;;15.40;56.70;;;;;;5031205;28;20032;-74
2022/05/31 02:37:42;;;;;;;8.27;7.78;;;15.30;57.00;;;;;;5031422;28;20041;-74
2022/05/31 02:40:09;;;;;;;8.00;7.50;;;15.20;57.20;;;;;;5030445;28;20030;-75
2022/05/31 02:42:37;;;;;;;8.50;7.80;;;15.20;57.50;;;;;;5031579;28;20034;-75
2022/05/31 02:45:07;;;;;;;8.57;8.00;;;15.10;57.80;;;;;;5011721;28;20025;-75
2022/05/31 02:47:33;;;;;;;8.55;8.05;;;15.10;57.80;;;;;;4997973;28;20029;-74
2022/05/31 02:49:59;;;;;;;9.05;8.35;;;15.10;57.90;;;;;;5030916;28;20040;-74
2022/05/31 02:52:25;;;;;;;8.52;7.93;;;15.10;58.10;;;;;;5029405;28;20026;-75
2022/05/31 02:54:51;;;;;;;8.90;8.30;;;15.10;58.30;;;;;;5031762;28;20033;-74
2022/05/31 02:57:17;;;;;;;8.98;8.20;;;15.00;58.40;;;;;;5030474;28;20053;-74
2022/05/31 02:59:43;;;;;;;8.50;7.90;;;15.00;58.70;;;;;;5031042;28;20028;-74
2022/05/31 03:02:10;;;;;;;8.48;7.78;;;15.00;59.20;;;;;;5028801;28;20411;-75
2022/05/31 03:04:36;;;;;;;8.73;7.90;;;15.00;59.40;;;;;;5030536;28;20131;-74
2022/05/31 03:07:03;;;;;;;8.73;7.93;;;15.00;59.60;;;;;;5030903;28;20965;-74
2022/05/31 03:09:31;;;;;;;8.23;7.63;;;14.90;59.90;;;;;;5031442;28;20419;-74
2022/05/31 03:12:11;;;;;;;8.75;7.95;;;14.90;60.10;;;;;;5011281;28;20050;-74
2022/05/31 03:14:41;;;;;;;8.27;7.78;;;14.80;60.50;;;;;;5026175;28;20221;-74
2022/05/31 03:17:14;;;;;;;8.50;8.00;;;14.80;60.40;;;;;;5030136;28;20056;-75
2022/05/31 03:19:53;;;;;;;8.88;7.60;;;14.70;60.60;;;;;;5011223;28;20296;-74
2022/05/31 03:22:22;;;;;;;8.20;7.60;;;14.70;60.90;;;;;;5029892;28;20563;-74
2022/05/31 03:25:22;;;;;;;7.97;7.47;;;14.70;61.00;;;;;;5010539;28;20046;-74
2022/05/31 03:27:48;;;;;;;8.13;7.53;;;14.70;60.80;;;;;;5024573;28;20037;-74
2022/05/31 03:30:15;;;;;;;8.13;7.53;;;14.60;60.90;;;;;;5028277;28;20033;-75
2022/05/31 03:32:41;;;;;;;8.02;7.28;;;14.60;61.30;;;;;;5028663;28;20037;-75
2022/05/31 03:35:07;;;;;;;8.00;7.35;;;14.40;61.70;;;;;;5030123;28;20033;-74
2022/05/31 03:37:33;;;;;;;8.70;8.00;;;14.40;62.20;;;;;;5029709;28;20053;-74
2022/05/31 03:40:00;;;;;;;8.55;7.78;;;14.40;61.90;;;;;;5029414;28;20026;-74
2022/05/31 03:42:26;;;;;;;8.25;7.75;;;14.30;62.00;;;;;;5012921;28;20038;-74
2022/05/31 03:44:52;;;;;;;7.85;7.35;;;14.30;62.00;;;;;;5027202;28;20033;-74
2022/05/31 03:47:18;;;;;;;7.50;7.00;;;14.30;62.00;;;;;;5027984;28;20045;-74
2022/05/31 03:49:44;;;;;;;7.70;7.20;;;14.40;62.40;;;;;;5030050;28;20037;-74
2022/05/31 03:52:10;;;;;;;8.40;7.72;;;14.40;62.00;;;;;;5027841;28;20026;-74
2022/05/31 03:54:37;;;;;;;8.77;8.18;;;14.40;62.40;;;;;;5031601;28;20048;-74
2022/05/31 03:57:04;;;;;;;10.18;7.82;;;14.40;62.10;;;;;;5029868;28;20033;-74
2022/05/31 03:59:37;;;;;;;8.43;7.90;;;14.30;62.30;;;;;;5010150;28;20060;-75
2022/05/31 04:02:04;;;;;;;8.57;7.97;;;14.30;62.60;;;;;;5029245;28;20033;-74
2022/05/31 04:04:30;;;;;;;8.55;7.97;;;14.20;62.50;;;;;;5010427;28;20045;-74
2022/05/31 04:06:56;;;;;;;8.73;8.02;;;14.20;62.50;;;;;;5028600;28;20052;-74
2022/05/31 04:09:22;;;;;;;9.05;8.45;;;14.20;62.70;;;;;;5030085;28;20411;-75
2022/05/31 04:11:48;;;;;;;8.80;8.20;;;14.10;62.80;;;;;;5010363;28;20036;-75
2022/05/31 04:14:15;;;;;;;8.88;8.15;;;14.10;63.00;;;;;;5025047;28;20628;-75
2022/05/31 04:16:41;;;;;;;9.05;8.27;;;14.10;63.20;;;;;;5011821;28;20036;-74
2022/05/31 04:19:07;;;;;;;9.23;8.40;;;14.20;63.30;;;;;;5027421;28;20038;-75
2022/05/31 04:21:33;;;;;;;9.57;8.75;;;14.10;63.00;;;;;;5013086;28;20021;-74
2022/05/31 04:24:01;;;;;;;10.38;9.48;;;14.10;63.20;;;;;;5026507;28;20392;-74
2022/05/31 04:26:35;;;;;;;10.48;9.68;;;14.00;63.40;;;;;;5026689;28;20026;-75
2022/05/31 04:29:01;;;;;;;9.63;8.93;;;14.00;63.50;;;;;;4995720;28;20049;-75
2022/05/31 04:31:27;;;;;;;10.40;9.60;;;13.90;64.50;;;;;;5027246;28;20033;-74
2022/05/31 04:33:53;;;;;;;9.18;8.45;;;14.00;63.70;;;;;;5029976;28;20032;-74
2022/05/31 04:36:20;;;;;;;9.27;8.68;;;13.90;63.70;;;;;;5027617;28;20026;-74
2022/05/31 04:38:46;;;;;;;9.23;8.43;;;13.90;63.90;;;;;;4996092;28;20065;-74
2022/05/31 04:41:18;;;;;;;8.65;7.85;;;13.80;64.10;;;;;;4996161;28;20037;-74
2022/05/31 04:43:44;;;;;;;9.10;8.43;;;13.80;64.40;;;;;;5029252;28;20040;-74
2022/05/31 04:46:17;;;;;;;8.50;7.90;;;13.90;64.40;;;;;;5027309;28;20050;-74
2022/05/31 04:48:44;;;;;;;10.77;7.97;;;13.90;64.60;;;;;;5009943;28;20476;-74
2022/05/31 04:51:11;;;;;;;8.27;7.57;;;13.90;64.90;;;;;;5043208;28;20033;-74
2022/05/31 04:53:38;;;;;;;8.68;8.07;;;13.90;64.70;;;;;;5026147;28;20044;-74
2022/05/31 04:56:06;;;;;;;8.68;8.07;;;13.90;64.80;;;;;;4995403;28;20408;-74
2022/05/31 04:58:32;;;;;;;8.63;7.97;;;13.90;65.20;;;;;;5028145;28;20044;-74
2022/05/31 05:01:01;;;;;;;8.63;8.02;;;13.90;65.10;;;;;;5027849;28;20483;-74
2022/05/31 05:03:30;;;;;;;8.77;8.07;;;13.90;65.40;;;;;;5012040;28;20380;-74
2022/05/31 05:06:00;;;;;;;8.80;8.15;;;13.90;66.30;;;;;;5025642;28;20036;-74
2022/05/31 05:08:27;;;;;;;8.68;7.90;;;13.90;66.20;;;;;;5008681;28;20045;-74
2022/05/31 05:10:53;;;;;;;9.07;8.30;;;14.00;66.70;;;;;;5011730;28;20065;-75
2022/05/31 05:13:19;;;;;;;8.07;7.57;;;14.10;66.90;;;;;;5027122;28;20041;-74
2022/05/31 05:15:45;;;;;;;8.00;7.50;;;14.30;67.40;;;;;;5028755;28;20399;-75
2022/05/31 05:18:11;;;;;;;9.10;8.40;;;14.50;67.20;;;;;;5027690;28;20038;-74
2022/05/31 05:20:38;;;;;;;10.25;7.50;;;14.70;67.00;;;;;;5002529;28;20042;-75
2022/05/31 05:23:05;;;;;;;8.48;7.68;;;14.90;67.00;;;;;;5017175;28;20452;-75
2022/05/31 05:25:31;;;;;;;7.93;7.43;;;15.10;66.60;;;;;;5027673;28;20385;-74
2022/05/31 05:27:58;;;;;;;8.38;7.85;;;15.30;65.50;;;;;;5027853;28;20033;-75
2022/05/31 05:30:39;;;;;;;8.88;8.25;;;15.40;65.70;;;;;;5027980;28;20029;-75
2022/05/31 05:33:05;;;;;;;;;;;15.60;65.00;;;;;;5028899;28;20044;-75
2022/05/31 05:35:31;;;;;;;9.85;8.55;;;15.90;64.10;;;;;;5058859;28;19909;-75
2022/05/31 05:37:58;;;;;;;9.20;8.60;;;16.00;63.50;;;;;;5028187;28;20046;-75
2022/05/31 05:40:24;;;;;;;9.65;8.93;;;16.10;62.90;;;;;;5026481;28;20019;-75
2022/05/31 05:42:50;;;;;;;9.88;9.25;;;16.30;62.50;;;;;;5027162;28;20053;-75
2022/05/31 05:45:18;;;;;;;10.60;9.90;;;16.40;62.30;;;;;;5026339;28;20500;-75
2022/05/31 05:47:44;;;;;;;10.65;9.90;;;16.50;61.90;;;;;;5026766;28;20384;-75
2022/05/31 05:50:10;;;;;;;10.68;10.07;;;16.70;61.50;;;;;;5028121;28;20026;-75
2022/05/31 05:52:37;;;;;;;10.20;9.50;;;16.80;60.80;;;;;;5027032;28;20033;-75
2022/05/31 05:55:04;;;;;;;10.13;9.50;;;17.00;60.50;;;;;;5027141;28;20254;-75
2022/05/31 05:57:30;;;;;;;10.60;9.90;;;17.10;60.30;;;;;;5029043;28;20029;-75
2022/05/31 05:59:56;;;;;;;10.80;10.10;;;17.30;59.90;;;;;;5028190;28;20399;-74
2022/05/31 06:02:27;;;;;;;11.45;10.55;;;17.50;59.30;;;;;;5026114;28;20044;-75
2022/05/31 06:05:03;;;;;;;11.60;10.90;;;17.60;59.00;;;;;;5027969;28;20040;-75
2022/05/31 06:07:37;;;;;;;11.35;10.55;;;17.80;58.20;;;;;;5025973;28;20037;-75
2022/05/31 06:10:06;;;;;;;11.98;11.10;;;17.90;57.60;;;;;;5027901;28;20069;-75
2022/05/31 06:12:35;;;;;;;11.60;10.80;;;18.10;57.60;;;;;;5028088;28;20030;-75
2022/05/31 06:15:11;;;;;;;12.15;11.30;;;18.20;57.60;;;;;;5026765;28;20029;-75
2022/05/31 06:17:40;;;;;;;11.90;11.10;;;18.40;57.10;;;;;;5015128;28;20476;-75
2022/05/31 06:20:07;;;;;;;12.80;12.00;;;18.50;56.80;;;;;;5028079;28;20041;-75
2022/05/31 06:22:35;;;;;;;12.27;11.35;;;18.70;56.30;;;;;;5009068;28;20049;-75
2022/05/31 06:25:01;;;;;;;13.05;11.93;;;18.80;55.80;;;;;;5027376;28;20033;-75
2022/05/31 06:27:27;;;;;;;13.10;12.07;;;19.00;54.90;;;;;;5027191;28;20040;-75
2022/05/31 06:29:54;;;;;;;13.10;12.07;;;19.00;53.90;;;;;;5025271;28;20034;-75
2022/05/31 06:32:20;;;;;;;13.55;12.48;;;18.90;54.30;;;;;;5007962;28;20033;-75
2022/05/31 06:34:46;;;;;;;12.82;11.80;;;19.00;54.90;;;;;;5030193;28;20037;-75
2022/05/31 06:37:14;;;;;;;13.00;11.85;;;19.10;54.80;;;;;;5029525;28;20033;-75
2022/05/31 06:39:41;;;;;;;14.18;12.88;;;19.30;54.20;;;;;;5011624;28;20056;-75
2022/05/31 06:42:07;;;;;;;14.30;13.23;;;19.40;54.10;;;;;;5031394;28;20040;-75
2022/05/31 06:44:34;;;;;;;13.68;12.68;;;19.60;53.70;;;;;;5031430;28;20037;-75
2022/05/31 06:47:00;;;;;;;14.40;13.40;;;19.70;52.60;;;;;;5030809;28;20093;-76
2022/05/31 06:49:27;;;;;;;14.93;13.77;;;19.70;50.00;;;;;;5011865;28;20045;-76
2022/05/31 06:57:24;;;;;;;14.30;13.23;;;19.60;50.60;;;;;;4993472;28;20038;-75
2022/05/31 06:59:50;;;;;;;15.23;13.73;;;19.70;50.30;;;;;;4992100;28;20098;-76
2022/05/31 07:02:16;;;;;;;14.65;13.55;;;19.70;46.50;;;;;;4974478;28;20043;-76
2022/05/31 07:04:42;;;;;;;14.35;13.35;;;19.60;48.30;;;;;;4991225;28;20052;-76
2022/05/31 07:07:08;;;;;;;14.90;13.68;;;19.60;46.60;;;;;;4972831;28;20031;-76
2022/05/31 07:09:34;;;;;;;15.00;13.93;;;19.60;46.40;;;;;;4975280;28;20050;-76
2022/05/31 07:12:00;;;;;;;14.90;14.00;;;19.70;46.80;;;;;;4990914;28;20034;-75
2022/05/31 07:14:27;;;;;;;14.63;13.82;;;19.90;46.80;;;;;;4992927;28;20045;-75
2022/05/31 07:16:53;;;;;;;15.38;14.38;;;20.10;47.90;;;;;;4985533;28;20041;-76
2022/05/31 07:19:19;;;;;;;15.80;14.48;;;20.30;47.50;;;;;;4987501;28;20051;-75
2022/05/31 07:21:46;;;;;;;15.50;13.98;;;20.50;47.30;;;;;;4977643;28;20034;-76
2022/05/31 07:24:12;;;;;;;15.48;14.32;;;20.80;46.30;;;;;;4976249;28;20030;-76
2022/05/31 07:26:38;;;;;;;16.23;14.90;;;20.90;45.60;;;;;;4970309;28;20436;-76
2022/05/31 07:29:05;;;;;;;17.00;15.55;;;21.10;46.40;;;;;;4984248;28;20050;-76
2022/05/31 07:31:31;;;;;;;16.05;14.90;;;21.10;43.90;;;;;;4989117;28;20035;-75
2022/05/31 07:34:00;;;;;;;17.05;15.65;;;21.10;44.50;;;;;;4986286;28;20033;-76
2022/05/31 07:36:27;;;;;;;16.98;15.98;;;21.30;45.00;;;;;;5026111;28;20042;-76
2022/05/31 07:38:53;;;;;;;16.98;15.95;;;21.40;42.10;;;;;;5025198;28;20488;-76
2022/05/31 07:41:20;;;;;;;16.55;15.25;;;21.20;41.90;;;;;;5011131;28;20025;-75
2022/05/31 07:43:46;;;;;;;17.23;15.45;;;21.10;43.30;;;;;;5028468;28;20033;-77
2022/05/31 07:46:13;;;;;;;18.33;15.98;;;21.00;42.80;;;;;;5028116;28;20030;-77
2022/05/31 07:48:39;;;;;;;16.45;15.15;;;21.00;42.40;;;;;;5031989;28;20021;-75
2022/05/31 07:51:06;;;;;;;17.08;14.95;;;20.90;42.70;;;;;;5030115;28;20032;-76
2022/05/31 07:53:32;;;;;;;16.58;15.50;;;20.90;44.00;;;;;;5029903;28;20025;-76
2022/05/31 07:56:00;;;;;;;16.13;15.00;;;21.20;42.50;;;;;;5026839;28;20038;-76
2022/05/31 07:58:33;;;;;;;18.33;15.15;;;21.20;42.20;;;;;;5027924;28;20026;-75
2022/05/31 08:01:00;;;;;;;17.13;15.52;;;21.40;43.60;;;;;;5029987;28;20033;-76
2022/05/31 08:03:26;;;;;;;17.13;15.63;;;21.70;43.40;;;;;;5029960;28;20056;-76
2022/05/31 08:05:53;;;;;;;18.27;17.27;;;21.90;42.20;;;;;;5010069;28;20396;-76
2022/05/31 08:08:19;;;;;;;18.52;17.33;;;22.10;41.50;;;;;;5029761;28;20414;-76
2022/05/31 08:10:46;;;;;;;19.77;18.25;;;22.40;40.00;;;;;;5006714;28;20054;-76
2022/05/31 08:13:12;;;;;;;19.63;18.42;;;22.60;40.80;;;;;;5026706;28;20040;-76
2022/05/31 08:15:38;;;;;;;19.52;18.20;;;22.80;40.10;;;;;;5031022;28;20468;-76
2022/05/31 08:18:05;;;;;;;18.98;17.60;;;23.10;39.20;;;;;;5059025;28;20045;-76
2022/05/31 08:20:31;;;;;;;19.58;18.05;;;23.30;39.90;;;;;;5027608;28;20038;-76
2022/05/31 08:22:57;;;;;;;19.40;18.20;;;23.20;38.80;;;;;;5010108;28;20025;-76
2022/05/31 08:25:23;;;;;;;19.20;18.00;;;23.00;36.90;;;;;;5027014;28;20501;-76
2022/05/31 08:27:49;;;;;;;18.67;17.20;;;22.80;37.60;;;;;;5029184;28;20498;-76
2022/05/31 08:30:15;;;;;;;19.13;17.60;;;22.70;38.00;;;;;;5027241;28;20031;-76
2022/05/31 08:32:41;;;;;;;18.50;17.38;;;22.70;38.80;;;;;;5026385;28;20026;-77
2022/05/31 08:35:07;;;;;;;18.67;17.67;;;22.90;38.50;;;;;;5027514;28;20044;-76
2022/05/31 08:37:34;;;;;;;18.92;17.92;;;22.90;37.10;;;;;;5029285;28;20471;-76
2022/05/31 08:40:00;;;;;;;19.25;18.05;;;22.90;35.90;;;;;;5010026;28;20060;-77
2022/05/31 08:42:57;;;;;;;17.55;16.55;;;22.80;36.20;;;;;;5031158;28;20040;-76
2022/05/31 08:45:32;;;;;;;18.45;17.45;;;22.70;36.60;;;;;;5029094;28;20037;-76
2022/05/31 08:48:07;;;;;;;17.75;16.80;;;22.60;36.70;;;;;;5012307;28;20041;-76
2022/05/31 08:56:59;;;;;;;18.48;17.40;;;22.80;35.10;;;;;;5029866;28;20040;-77
2022/05/31 08:59:43;;;;;;;18.50;17.48;;;22.70;35.30;;;;;;5028698;28;20041;-76
2022/05/31 09:02:37;;;;;;;19.05;18.05;;;22.90;35.30;;;;;;5026567;28;20049;-76
2022/05/31 09:05:13;;;;;;;20.35;19.17;;;23.10;33.70;;;;;;5028199;28;20041;-76
2022/05/31 09:07:44;;;;;;;19.92;18.83;;;23.30;33.70;;;;;;5009725;28;20041;-76
2022/05/31 09:10:35;;;;;;;19.90;18.60;;;23.30;31.70;;;;;;5026574;28;20049;-76
2022/05/31 09:13:15;;;;;;;19.42;18.33;;;23.20;32.50;;;;;;5026617;28;20036;-76
2022/05/31 09:16:07;;;;;;;20.30;19.02;;;23.20;33.10;;;;;;5024893;28;20488;-76
2022/05/31 09:18:44;;;;;;;20.23;19.13;;;23.20;33.80;;;;;;5028772;28;20041;-77
2022/05/31 09:21:16;;;;;;;19.42;18.25;;;23.30;31.20;;;;;;5018301;28;20033;-76
2022/05/31 09:23:45;;;;;;;19.90;18.83;;;23.20;33.50;;;;;;5022243;28;20045;-76
2022/05/31 09:26:32;;;;;;;19.50;18.40;;;23.20;32.30;;;;;;4995888;28;20068;-76
2022/05/31 09:29:23;;;;;;;19.95;18.83;;;23.20;32.90;;;;;;5027085;28;20034;-76
2022/05/31 09:31:53;;;;;;;20.75;19.52;;;23.30;33.10;;;;;;5027952;28;20571;-76
2022/05/31 09:34:22;;;;;;;20.80;19.50;;;23.60;32.00;;;;;;5027021;28;20507;-76
2022/05/31 09:37:21;;;;;;;19.65;18.65;;;23.50;31.80;;;;;;5060829;28;20033;-76
2022/05/31 09:40:02;;;;;;;21.15;20.05;;;23.40;31.20;;;;;;5026405;28;20495;-77
2022/05/31 09:42:30;;;;;;;;;;;23.60;31.30;;;;;;5027657;28;20515;-76
2022/05/31 09:45:06;;;;;;;20.85;19.20;;;23.60;31.50;;;;;;5044220;28;19917;-76
2022/05/31 09:47:32;;;;;;;19.83;18.63;;;23.50;30.80;;;;;;5020574;28;20029;-76
2022/05/31 09:49:59;;;;;;;22.27;21.08;;;23.60;32.50;;;;;;5028178;28;20341;-76
2022/05/31 09:52:43;;;;;;;1999.90;999.90;;;23.90;32.70;;;;;;5026312;28;20032;-76
2022/05/31 09:58:07;;;;;;;1505.93;755.60;;;24.30;30.10;;;;;;5027231;28;20046;-76
2022/05/31 10:00:38;;;;;;;1999.90;999.90;;;24.20;30.40;;;;;;5008471;28;20042;-77
2022/05/31 10:03:04;;;;;;;;;;;24.50;31.90;;;;;;5005735;28;20049;-77
2022/05/31 10:05:31;;;;;;;1999.90;999.90;;;24.90;31.20;;;;;;5007033;28;20439;-76
2022/05/31 10:07:57;;;;;;;1999.90;999.90;;;25.20;29.40;;;;;;5021488;28;20034;-77
2022/05/31 10:10:31;;;;;;;1999.90;999.90;;;25.50;30.00;;;;;;5025979;28;20054;-77
2022/05/31 10:13:08;;;;;;;1999.90;999.90;;;25.60;30.00;;;;;;5027229;28;20034;-76
2022/05/31 10:15:49;;;;;;;1999.90;999.90;;;25.40;28.50;;;;;;5012504;28;20037;-77
2022/05/31 10:18:33;;;;;;;;;;;25.40;29.50;;;;;;5027271;28;20037;-76
2022/05/31 10:21:03;;;;;;;1999.90;999.90;;;25.30;28.50;;;;;;5016835;28;20023;-76
2022/05/31 10:23:33;;;;;;;1999.90;999.90;;;24.90;28.00;;;;;;4990754;28;20029;-77
2022/05/31 10:25:59;;;;;;;22.15;20.85;;;24.30;28.30;;;;;;4993117;28;20045;-76
2022/05/31 10:28:40;;;;;;;22.13;20.92;;;24.00;29.00;;;;;;5010422;28;20034;-76
2022/05/31 10:31:18;;;;;;;23.27;21.85;;;24.20;30.60;;;;;;5018877;28;20499;-76
2022/05/31 10:33:54;;;;;;;1999.90;999.90;;;24.60;29.60;;;;;;5028773;28;20037;-76
2022/05/31 10:36:21;;;;;;;24.08;22.83;;;24.90;29.90;;;;;;5014137;28;20045;-76
2022/05/31 10:38:48;;;;;;;1999.90;999.90;;;24.90;29.70;;;;;;5031272;28;20499;-76
2022/05/31 10:41:25;;;;;;;1999.90;999.90;;;25.00;29.60;;;;;;5031314;28;20033;-77
2022/05/31 10:43:56;;;;;;;1999.90;999.90;;;25.10;29.30;;;;;;5027042;28;20536;-77
2022/05/31 10:46:30;;;;;;;1999.90;999.90;;;25.10;28.30;;;;;;5013379;28;20476;-77
2022/05/31 10:48:58;;;;;;;1999.90;999.90;;;25.20;28.40;;;;;;5032399;28;20380;-76
2022/05/31 10:51:45;;;;;;;1999.90;999.90;;;24.90;28.20;;;;;;4999368;28;20038;-76
2022/05/31 10:54:17;;;;;;;22.45;21.35;;;24.80;28.60;;;;;;5031534;28;20037;-76
2022/05/31 10:56:58;;;;;;;1999.90;999.90;;;24.70;29.50;;;;;;5029707;28;20032;-77
2022/05/31 10:59:30;;;;;;;1999.90;999.90;;;25.00;29.30;;;;;;5029549;28;20391;-76
2022/05/31 11:02:29;;;;;;;1999.90;999.90;;;25.20;28.80;;;;;;5030660;28;20034;-77
2022/05/31 11:04:56;;;;;;;1999.90;999.90;;;25.40;28.70;;;;;;5026882;28;20068;-77
2022/05/31 11:07:23;;;;;;;1999.90;999.90;;;25.70;28.70;;;;;;5028771;28;20018;-77
2022/05/31 11:13:20;;;;;;;1999.90;999.90;;;26.20;27.20;;;;;;5030835;28;20033;-77
2022/05/31 11:15:55;;;;;;;1999.90;999.90;;;26.30;27.40;;;;;;5026896;28;20037;-77
2022/05/31 11:18:36;;;;;;;1999.90;999.90;;;26.20;26.40;;;;;;5030579;28;20029;-77
2022/05/31 11:21:37;;;;;;;1999.90;999.90;;;26.00;26.40;;;;;;5029163;28;20068;-76
2022/05/31 11:24:18;;;;;;;1999.90;999.90;;;25.50;26.40;;;;;;4938878;29;20051;-76
2022/05/31 11:27:08;;;;;;;1999.90;999.90;;;25.00;27.70;;;;;;4949986;29;20043;-76
2022/05/31 11:29:54;;;;;;;1999.90;999.90;;;25.40;28.00;;;;;;4951235;29;20047;-77
2022/05/31 11:32:32;;;;;;;1999.90;999.90;;;25.70;27.10;;;;;;4950865;29;20046;-77
2022/05/31 11:35:27;;;;;;;1999.90;999.90;;;26.00;27.90;;;;;;4949437;29;20051;-77
2022/05/31 11:37:56;;;;;;;1999.90;999.90;;;26.30;27.60;;;;;;4898242;29;20438;-77
2022/05/31 11:40:40;;;;;;;1999.90;999.90;;;26.60;27.80;;;;;;4895404;29;20053;-76
2022/05/31 11:43:37;;;;;;;1999.90;999.90;;;26.70;25.20;;;;;;4895048;29;20044;-76
2022/05/31 11:46:29;;;;;;;1999.90;999.90;;;25.90;25.50;;;;;;4908791;29;20055;-76
2022/05/31 11:49:07;;;;;;;1999.90;999.90;;;25.70;26.90;;;;;;4925121;29;20040;-76
2022/05/31 11:51:51;;;;;;;1505.82;755.53;;;25.30;27.10;;;;;;4881819;29;20044;-76
2022/05/31 11:55:25;;;;;;;23.25;22.05;;;25.00;27.20;;;;;;4898525;29;20044;-76
2022/05/31 11:57:49;;;;;;;21.45;20.35;;;24.60;27.30;;;;;;4898130;29;20036;-76
2022/05/31 12:00:16;;;;;;;22.52;21.15;;;24.30;28.50;;;;;;4901976;28;20049;-76
2022/05/31 12:02:45;;;;;;;22.10;20.90;;;24.60;28.10;;;;;;4935552;29;20050;-77
2022/05/31 12:05:13;;;;;;;1999.90;999.90;;;24.70;28.20;;;;;;4951788;28;20161;-76
2022/05/31 12:07:44;;;;;;;1999.90;999.90;;;25.10;28.20;;;;;;4951458;28;20054;-76
2022/05/31 12:10:16;;;;;;;1999.90;999.90;;;25.20;27.50;;;;;;4934104;28;20039;-77
2022/05/31 12:12:42;;;;;;;1999.90;999.90;;;25.30;27.10;;;;;;4946855;28;20429;-76
2022/05/31 12:15:15;;;;;;;1999.90;999.90;;;25.20;28.60;;;;;;5017330;28;20060;-77
2022/05/31 12:17:56;;;;;;;1999.90;999.90;;;25.50;28.30;;;;;;5029594;28;20034;-77
2022/05/31 12:20:26;;;;;;;1999.90;999.90;;;25.90;29.30;;;;;;5028002;28;20037;-77
2022/05/31 12:23:05;;;;;;;1999.90;999.90;;;26.30;27.50;;;;;;5007157;28;20061;-77
2022/05/31 12:25:36;;;;;;;1999.90;999.90;;;26.60;28.00;;;;;;5028256;28;20041;-77
2022/05/31 12:28:49;;;;;;;1999.90;999.90;;;26.70;27.20;;;;;;5028348;28;20033;-77
2022/05/31 12:31:26;;;;;;;1999.90;999.90;;;26.90;27.00;;;;;;4992365;28;20029;-76
2022/05/31 12:33:52;;;;;;;1999.90;999.90;;;27.00;26.30;;;;;;5025034;28;20068;-77
2022/05/31 12:36:22;;;;;;;1999.90;999.90;;;26.90;26.60;;;;;;5043594;28;20038;-77
2022/05/31 12:39:18;;;;;;;1999.90;999.90;;;26.80;26.70;;;;;;5025050;28;20066;-76
2022/05/31 12:41:46;;;;;;;1999.90;999.90;;;26.80;26.70;;;;;;5025353;28;20167;-77
2022/05/31 12:44:15;;;;;;;1999.90;999.90;;;26.60;26.50;;;;;;5025210;28;20030;-77
2022/05/31 12:46:45;;;;;;;1999.90;999.90;;;26.70;26.70;;;;;;5041198;28;20044;-77
2022/05/31 12:49:27;;;;;;;1999.90;999.90;;;26.80;26.70;;;;;;5025012;28;20045;-76
2022/05/31 12:54:48;;;;;;;1999.90;999.90;;;26.40;27.30;;;;;;5027252;28;20033;-76
2022/05/31 12:57:30;;;;;;;1999.90;999.90;;;26.30;27.60;;;;;;5021101;28;20443;-77
2022/05/31 12:59:56;;;;;;;1999.90;999.90;;;26.50;27.00;;;;;;5025096;28;20555;-77
2022/05/31 13:02:28;;;;;;;1999.90;999.90;;;26.60;27.20;;;;;;5021733;28;20041;-77
2022/05/31 13:04:57;;;;;;;1999.90;999.90;;;26.80;26.50;;;;;;5022044;28;20056;-77
2022/05/31 13:07:24;;;;;;;1999.90;999.90;;;27.00;27.20;;;;;;5022641;28;20030;-76
2022/05/31 13:09:50;;;;;;;1999.90;999.90;;;27.30;27.50;;;;;;5023078;28;20049;-77